Time;durP1;ratioP1;P1;durP2;ratioP2;P2;SDS_P1;SDS_P2;PMS_P1;PMS_P2;Temp;Humidity;BMP_temperature;BMP_pressure;BME280_temperature;BME280_humidity;BME280_pressure;Samples;Min_cycle;Max_cycle;Signal;HPM_P1;HPM_P2
2021/06/18 00:01:23;;;;;;;7.95;5.90;;;;;;;;;;5082326;28;20185;-79
2021/06/18 00:03:50;;;;;;;10.40;6.30;;;;;;;;;;5082084;28;20195;-79
2021/06/18 00:06:16;;;;;;;10.55;6.55;;;;;;;;;;5083684;28;20174;-79
2021/06/18 00:08:42;;;;;;;7.82;5.50;;;;;;;;;;5080831;28;20229;-79
2021/06/18 00:11:08;;;;;;;8.27;6.53;;;;;;;;;;5079342;28;20177;-79
2021/06/18 00:13:34;;;;;;;11.00;6.40;;;;;;;;;;5079907;28;20670;-78
2021/06/18 00:16:00;;;;;;;14.35;7.18;;;;;;;;;;5079696;28;20461;-79
2021/06/18 00:18:27;;;;;;;10.93;6.50;;;;;;;;;;5082891;28;20182;-79
2021/06/18 00:20:53;;;;;;;10.10;7.20;;;;;;;;;;5080888;28;20460;-79
2021/06/18 00:23:19;;;;;;;7.38;6.63;;;;;;;;;;5078983;28;20215;-78
2021/06/18 00:25:45;;;;;;;7.75;6.20;;;;;;;;;;5080339;28;20181;-79
2021/06/18 00:28:13;;;;;;;9.33;6.23;;;;;;;;;;5079430;28;20212;-80
2021/06/18 00:30:39;;;;;;;7.32;6.63;;;;;;;;;;5081472;28;20422;-79
2021/06/18 00:33:05;;;;;;;12.00;7.28;;;;;;;;;;5096346;28;20238;-79
2021/06/18 00:35:31;;;;;;;10.52;6.63;;;;;;;;;;5080374;28;20183;-79
2021/06/18 00:37:57;;;;;;;9.40;7.60;;;;;;;;;;5079163;28;20180;-79
2021/06/18 00:40:23;;;;;;;11.30;7.47;;;;;;;;;;5082013;28;20238;-79
2021/06/18 00:42:49;;;;;;;8.75;7.70;;;;;;;;;;5080488;28;20464;-78
2021/06/18 00:45:16;;;;;;;9.05;6.80;;;;;;;;;;5093344;28;20226;-79
2021/06/18 00:47:46;;;;;;;10.48;7.00;;;;;;;;;;5080076;28;20256;-79
2021/06/18 00:50:13;;;;;;;13.98;7.35;;;;;;;;;;5079853;28;20182;-79
2021/06/18 00:52:39;;;;;;;8.65;7.00;;;;;;;;;;5078917;28;20671;-79
2021/06/18 00:55:05;;;;;;;9.53;7.03;;;;;;;;;;5079244;28;20187;-78
2021/06/18 00:57:31;;;;;;;7.65;6.82;;;;;;;;;;5082241;28;20414;-78
2021/06/18 00:59:57;;;;;;;10.07;6.95;;;;;;;;;;5082863;28;20267;-78
2021/06/18 01:02:23;;;;;;;9.40;6.63;;;;;;;;;;5079485;28;20375;-78
2021/06/18 01:04:49;;;;;;;9.75;7.57;;;;;;;;;;5079925;28;20462;-78
2021/06/18 01:07:23;;;;;;;10.00;7.78;;;;;;;;;;5080885;28;20412;-79
2021/06/18 01:09:52;;;;;;;11.35;7.32;;;;;;;;;;5097042;28;20178;-78
2021/06/18 01:12:19;;;;;;;9.75;8.05;;;;;;;;;;5081828;28;20240;-78
2021/06/18 01:14:56;;;;;;;14.88;9.10;;;;;;;;;;5079903;28;20195;-78
2021/06/18 01:17:31;;;;;;;13.70;8.77;;;;;;;;;;5078780;28;20265;-78
2021/06/18 01:20:20;;;;;;;12.43;8.00;;;;;;;;;;5078632;28;20185;-78
2021/06/18 01:22:48;;;;;;;12.32;8.60;;;;;;;;;;5071355;28;20212;-78
2021/06/18 01:25:33;;;;;;;15.18;8.75;;;;;;;;;;5080373;28;20197;-78
2021/06/18 01:28:11;;;;;;;12.05;9.43;;;;;;;;;;5089650;28;20670;-78
2021/06/18 01:30:38;;;;;;;12.73;8.82;;;;;;;;;;5080822;28;20251;-78
2021/06/18 01:33:09;;;;;;;10.77;9.00;;;;;;;;;;5081311;28;20166;-78
2021/06/18 01:35:52;;;;;;;13.95;9.63;;;;;;;;;;5078599;28;20181;-78
2021/06/18 01:38:20;;;;;;;11.02;8.85;;;;;;;;;;5078183;28;20180;-78
2021/06/18 01:40:48;;;;;;;13.40;9.30;;;;;;;;;;5081766;28;20273;-78
2021/06/18 01:43:14;;;;;;;16.67;10.38;;;;;;;;;;5083796;28;20173;-77
2021/06/18 01:45:41;;;;;;;14.82;9.45;;;;;;;;;;5086368;28;20177;-77
2021/06/18 01:48:08;;;;;;;13.05;8.63;;;;;;;;;;5085286;28;20228;-77
2021/06/18 01:50:34;;;;;;;12.70;10.10;;;;;;;;;;5082068;28;20176;-77
2021/06/18 01:53:06;;;;;;;17.88;10.27;;;;;;;;;;5081803;28;20177;-77
2021/06/18 01:55:33;;;;;;;9.40;8.50;;;;;;;;;;5082245;28;20181;-78
2021/06/18 01:58:01;;;;;;;14.93;9.25;;;;;;;;;;5083238;28;20185;-77
2021/06/18 02:00:28;;;;;;;15.25;9.30;;;;;;;;;;5085501;28;20180;-77
2021/06/18 02:02:54;;;;;;;15.98;9.00;;;;;;;;;;5083928;28;20196;-77
2021/06/18 02:05:21;;;;;;;12.52;9.00;;;;;;;;;;5082078;28;20185;-78
2021/06/18 02:07:49;;;;;;;17.55;9.45;;;;;;;;;;5081346;28;20669;-78
2021/06/18 02:10:15;;;;;;;14.48;10.18;;;;;;;;;;5083324;28;20188;-77
2021/06/18 02:12:41;;;;;;;23.98;10.05;;;;;;;;;;5084995;28;20187;-79
2021/06/18 02:15:08;;;;;;;28.15;10.65;;;;;;;;;;5085448;28;20177;-81
2021/06/18 02:17:36;;;;;;;12.70;8.80;;;;;;;;;;5081579;28;20178;-79
2021/06/18 02:20:06;;;;;;;14.25;8.75;;;;;;;;;;5081588;28;20177;-78
2021/06/18 02:22:32;;;;;;;16.13;9.10;;;;;;;;;;5082724;28;20213;-78
2021/06/18 02:24:58;;;;;;;14.40;9.15;;;;;;;;;;5082845;28;20557;-79
2021/06/18 02:27:24;;;;;;;9.95;8.25;;;;;;;;;;5085198;28;20191;-78
2021/06/18 02:29:50;;;;;;;11.10;7.80;;;;;;;;;;5082641;28;20610;-77
2021/06/18 02:32:17;;;;;;;15.32;7.95;;;;;;;;;;5081614;28;20185;-77
2021/06/18 02:34:43;;;;;;;12.13;7.03;;;;;;;;;;5081709;28;20177;-77
2021/06/18 02:37:10;;;;;;;11.57;7.05;;;;;;;;;;5082373;28;20206;-76
2021/06/18 02:39:36;;;;;;;8.00;6.70;;;;;;;;;;5084721;28;20737;-79
2021/06/18 02:42:03;;;;;;;9.32;7.07;;;;;;;;;;5083611;28;20245;-77
2021/06/18 02:44:29;;;;;;;12.20;6.85;;;;;;;;;;5082438;28;20236;-77
2021/06/18 02:46:58;;;;;;;12.00;7.30;;;;;;;;;;5081556;28;20220;-77
2021/06/18 02:49:30;;;;;;;12.45;7.50;;;;;;;;;;5081185;28;20991;-77
2021/06/18 02:52:00;;;;;;;13.40;7.65;;;;;;;;;;5091687;28;20197;-77
2021/06/18 02:54:27;;;;;;;12.43;7.45;;;;;;;;;;5097300;28;20176;-76
2021/06/18 02:56:57;;;;;;;21.45;7.82;;;;;;;;;;5083129;28;20543;-76
2021/06/18 02:59:41;;;;;;;10.50;7.15;;;;;;;;;;5083654;28;20212;-76
2021/06/18 03:02:09;;;;;;;12.60;6.38;;;;;;;;;;5081148;28;20216;-76
2021/06/18 03:04:38;;;;;;;12.32;7.03;;;;;;;;;;5081171;28;20567;-76
2021/06/18 03:07:09;;;;;;;11.85;8.45;;;;;;;;;;5082372;28;20183;-75
2021/06/18 03:09:37;;;;;;;8.65;6.55;;;;;;;;;;5083389;28;20193;-76
2021/06/18 03:12:03;;;;;;;8.10;6.38;;;;;;;;;;5084168;28;20169;-76
2021/06/18 03:14:31;;;;;;;11.25;6.95;;;;;;;;;;5080827;28;20177;-76
2021/06/18 03:17:00;;;;;;;10.20;7.10;;;;;;;;;;5080509;28;20182;-76
2021/06/18 03:19:34;;;;;;;16.15;7.38;;;;;;;;;;5081634;28;20184;-77
2021/06/18 03:22:01;;;;;;;22.63;9.32;;;;;;;;;;5092511;28;20197;-77
2021/06/18 03:24:30;;;;;;;35.80;8.63;;;;;;;;;;5083440;28;20181;-77
2021/06/18 03:26:56;;;;;;;30.23;8.98;;;;;;;;;;5081694;28;20180;-77
2021/06/18 03:29:23;;;;;;;16.50;8.65;;;;;;;;;;5079101;28;20247;-77
2021/06/18 03:31:49;;;;;;;26.80;8.70;;;;;;;;;;5080811;28;20204;-76
2021/06/18 03:34:16;;;;;;;22.85;8.90;;;;;;;;;;5081537;28;20570;-77
2021/06/18 03:36:43;;;;;;;48.42;13.35;;;;;;;;;;5082390;28;20207;-77
2021/06/18 03:39:09;;;;;;;42.90;12.40;;;;;;;;;;5083277;28;20265;-77
2021/06/18 03:41:35;;;;;;;30.75;10.48;;;;;;;;;;5081116;28;20642;-76
2021/06/18 03:44:01;;;;;;;24.70;9.00;;;;;;;;;;5081292;28;20210;-75
2021/06/18 03:46:28;;;;;;;28.25;10.27;;;;;;;;;;5079954;28;21121;-75
2021/06/18 03:48:54;;;;;;;39.40;11.55;;;;;;;;;;5077666;28;20209;-75
2021/06/18 03:51:20;;;;;;;17.25;8.70;;;;;;;;;;5084526;28;20380;-75
2021/06/18 03:53:46;;;;;;;20.90;8.90;;;;;;;;;;5080922;28;20181;-75
2021/06/18 03:56:12;;;;;;;16.83;8.73;;;;;;;;;;5079466;28;20689;-75
2021/06/18 03:58:39;;;;;;;40.88;11.02;;;;;;;;;;5079811;28;20446;-76
2021/06/18 04:01:06;;;;;;;21.42;8.50;;;;;;;;;;5080523;28;20200;-76
2021/06/18 04:03:32;;;;;;;33.38;9.77;;;;;;;;;;5081837;28;20196;-77
2021/06/18 04:06:04;;;;;;;30.58;9.35;;;;;;;;;;5081812;28;20176;-77
2021/06/18 04:08:30;;;;;;;26.58;8.80;;;;;;;;;;5079139;28;20213;-76
2021/06/18 04:10:56;;;;;;;19.73;9.23;;;;;;;;;;5079402;28;20213;-77
2021/06/18 04:13:22;;;;;;;15.38;7.78;;;;;;;;;;5082168;28;20677;-76
2021/06/18 04:15:48;;;;;;;16.88;7.72;;;;;;;;;;5081918;28;20189;-76
2021/06/18 04:18:21;;;;;;;11.73;7.40;;;;;;;;;;5083600;28;20289;-77
2021/06/18 04:20:48;;;;;;;12.65;6.90;;;;;;;;;;5078763;28;20212;-77
2021/06/18 04:23:14;;;;;;;11.35;5.80;;;;;;;;;;5080619;28;20184;-77
2021/06/18 04:25:40;;;;;;;8.67;5.23;;;;;;;;;;5080425;28;20274;-76
2021/06/18 04:28:06;;;;;;;10.00;5.27;;;;;;;;;;5079734;28;20995;-77
2021/06/18 04:30:32;;;;;;;14.57;5.78;;;;;;;;;;5082707;28;20924;-77
2021/06/18 04:32:59;;;;;;;13.02;7.03;;;;;;;;;;5083224;28;20170;-77
2021/06/18 04:35:25;;;;;;;10.27;5.85;;;;;;;;;;5078498;28;20208;-76
2021/06/18 04:37:51;;;;;;;10.10;5.88;;;;;;;;;;5078846;28;20191;-76
2021/06/18 04:40:17;;;;;;;5.90;4.93;;;;;;;;;;5080594;28;20199;-76
2021/06/18 04:42:43;;;;;;;9.68;5.30;;;;;;;;;;5081889;28;20240;-77
2021/06/18 04:45:10;;;;;;;7.32;4.47;;;;;;;;;;5092734;28;20169;-77
2021/06/18 04:47:36;;;;;;;11.85;5.70;;;;;;;;;;5079152;28;20232;-77
2021/06/18 04:50:03;;;;;;;8.30;5.43;;;;;;;;;;5079845;28;20184;-76
2021/06/18 04:52:29;;;;;;;12.63;7.80;;;;;;;;;;5079606;28;20177;-77
2021/06/18 04:54:58;;;;;;;9.05;6.10;;;;;;;;;;5079032;28;20180;-77
2021/06/18 04:57:24;;;;;;;6.32;5.00;;;;;;;;;;5080269;28;20169;-77
2021/06/18 04:59:50;;;;;;;7.32;5.70;;;;;;;;;;5080332;28;20199;-77
2021/06/18 05:02:16;;;;;;;7.93;5.50;;;;;;;;;;5078896;28;20192;-76
2021/06/18 05:04:42;;;;;;;9.25;6.13;;;;;;;;;;5079467;28;20188;-77
2021/06/18 05:07:08;;;;;;;11.97;5.60;;;;;;;;;;5078919;28;20571;-77
2021/06/18 05:09:34;;;;;;;7.57;6.30;;;;;;;;;;5080487;28;20460;-76
2021/06/18 05:12:00;;;;;;;8.10;5.63;;;;;;;;;;5081426;28;20573;-76
2021/06/18 05:14:26;;;;;;;9.57;5.63;;;;;;;;;;5079041;28;20422;-76
2021/06/18 05:16:52;;;;;;;8.73;6.27;;;;;;;;;;5079979;28;20176;-76
2021/06/18 05:19:18;;;;;;;12.43;5.60;;;;;;;;;;5080375;28;20423;-76
2021/06/18 05:21:44;;;;;;;9.48;7.07;;;;;;;;;;5079933;28;20425;-76
2021/06/18 05:24:10;;;;;;;12.98;6.90;;;;;;;;;;5081920;28;20690;-76
2021/06/18 05:26:36;;;;;;;24.15;7.35;;;;;;;;;;5081615;28;20184;-77
2021/06/18 05:29:03;;;;;;;10.00;6.55;;;;;;;;;;5088781;28;20698;-77
2021/06/18 05:31:29;;;;;;;12.38;6.40;;;;;;;;;;5081754;28;20639;-76
2021/06/18 05:33:55;;;;;;;20.33;7.70;;;;;;;;;;5079920;28;20181;-76
2021/06/18 05:36:21;;;;;;;17.87;7.13;;;;;;;;;;5083315;28;20401;-76
2021/06/18 05:38:47;;;;;;;14.60;7.97;;;;;;;;;;5076568;28;20494;-76
2021/06/18 05:41:13;;;;;;;11.80;8.20;;;;;;;;;;5079231;28;20185;-76
2021/06/18 05:43:39;;;;;;;15.20;8.17;;;;;;;;;;5080791;28;20509;-76
2021/06/18 05:46:05;;;;;;;11.87;6.67;;;;;;;;;;5079677;28;20494;-76
2021/06/18 05:48:31;;;;;;;17.60;7.53;;;;;;;;;;5081236;28;21003;-76
2021/06/18 05:50:57;;;;;;;9.85;7.03;;;;;;;;;;5097607;28;20394;-76
2021/06/18 05:53:24;;;;;;;19.63;7.15;;;;;;;;;;5077590;28;20175;-76
2021/06/18 05:55:50;;;;;;;19.98;7.85;;;;;;;;;;5081508;28;20181;-76
2021/06/18 05:58:16;;;;;;;15.35;8.05;;;;;;;;;;5080820;28;20217;-76
2021/06/18 06:00:42;;;;;;;11.88;7.78;;;;;;;;;;5079583;28;20186;-76
2021/06/18 06:03:09;;;;;;;8.20;6.78;;;;;;;;;;5091399;28;20231;-76
2021/06/18 06:05:36;;;;;;;23.23;8.70;;;;;;;;;;5077774;28;20267;-76
2021/06/18 06:08:02;;;;;;;16.45;8.60;;;;;;;;;;5079429;28;20226;-76
2021/06/18 06:10:28;;;;;;;10.60;8.00;;;;;;;;;;5078952;28;20191;-77
2021/06/18 06:12:54;;;;;;;17.08;8.80;;;;;;;;;;5075824;28;20444;-77
2021/06/18 06:15:20;;;;;;;32.80;9.47;;;;;;;;;;5082856;28;20232;-77
2021/06/18 06:17:46;;;;;;;18.70;10.25;;;;;;;;;;5078944;28;20419;-76
2021/06/18 06:20:13;;;;;;;16.57;9.23;;;;;;;;;;5077672;28;20173;-75
2021/06/18 06:22:39;;;;;;;19.33;8.60;;;;;;;;;;5072464;28;20425;-74
2021/06/18 06:25:05;;;;;;;16.30;10.00;;;;;;;;;;5076646;28;20215;-74
2021/06/18 06:27:31;;;;;;;19.98;9.65;;;;;;;;;;5080947;28;20428;-74
2021/06/18 06:29:57;;;;;;;17.40;9.73;;;;;;;;;;5097751;28;20176;-74
2021/06/18 06:32:23;;;;;;;19.65;10.43;;;;;;;;;;5079149;28;20434;-74
2021/06/18 06:34:49;;;;;;;14.60;9.63;;;;;;;;;;5081580;28;20295;-74
2021/06/18 06:37:15;;;;;;;11.77;8.25;;;;;;;;;;5081150;28;20430;-73
2021/06/18 06:39:41;;;;;;;14.83;9.83;;;;;;;;;;5080083;28;20217;-74
2021/06/18 06:42:07;;;;;;;23.73;9.63;;;;;;;;;;5083874;28;20429;-74
2021/06/18 06:44:33;;;;;;;22.05;10.30;;;;;;;;;;5081648;28;20210;-73
2021/06/18 06:46:59;;;;;;;17.80;9.67;;;;;;;;;;5082222;28;20219;-74
2021/06/18 06:49:25;;;;;;;17.83;10.50;;;;;;;;;;5082223;28;20437;-74
2021/06/18 06:51:52;;;;;;;16.20;9.30;;;;;;;;;;5083463;28;20422;-74
2021/06/18 06:54:18;;;;;;;12.00;7.90;;;;;;;;;;5081495;28;20397;-74
2021/06/18 06:56:44;;;;;;;11.03;7.60;;;;;;;;;;5079177;28;20407;-74
2021/06/18 06:59:10;;;;;;;7.57;6.83;;;;;;;;;;5080877;28;20421;-75
2021/06/18 07:01:36;;;;;;;11.90;7.97;;;;;;;;;;5081202;28;20478;-75
2021/06/18 07:04:02;;;;;;;9.50;6.90;;;;;;;;;;5084279;28;20435;-75
2021/06/18 07:06:32;;;;;;;9.70;6.40;;;;;;;;;;5085346;28;20457;-75
2021/06/18 07:08:58;;;;;;;6.40;5.80;;;;;;;;;;5093043;28;20585;-75
2021/06/18 07:11:24;;;;;;;5.80;5.30;;;;;;;;;;5079829;28;20413;-75
2021/06/18 07:13:50;;;;;;;7.17;5.70;;;;;;;;;;5078634;28;20409;-75
2021/06/18 07:16:16;;;;;;;6.10;5.47;;;;;;;;;;5081281;28;20473;-75
2021/06/18 07:18:42;;;;;;;9.00;6.13;;;;;;;;;;5082428;28;20761;-75
2021/06/18 07:21:08;;;;;;;8.00;5.30;;;;;;;;;;5090259;28;20415;-74
2021/06/18 07:23:34;;;;;;;7.03;5.10;;;;;;;;;;5082147;28;20417;-75
2021/06/18 07:26:00;;;;;;;10.85;5.60;;;;;;;;;;5080337;28;20448;-74
2021/06/18 07:28:26;;;;;;;5.57;5.03;;;;;;;;;;5082195;28;20208;-75
2021/06/18 07:30:52;;;;;;;6.50;4.20;;;;;;;;;;5081549;28;20521;-74
2021/06/18 07:33:18;;;;;;;7.20;4.60;;;;;;;;;;5084776;28;20479;-74
2021/06/18 07:35:44;;;;;;;8.93;4.13;;;;;;;;;;5079999;28;20468;-74
2021/06/18 07:38:10;;;;;;;6.00;5.10;;;;;;;;;;5079747;28;20455;-74
2021/06/18 07:40:36;;;;;;;4.23;3.93;;;;;;;;;;5079939;28;20409;-74
2021/06/18 07:43:03;;;;;;;7.67;4.50;;;;;;;;;;5082080;28;20405;-74
2021/06/18 07:45:30;;;;;;;4.77;4.10;;;;;;;;;;5082933;28;20968;-74
2021/06/18 07:47:56;;;;;;;5.47;4.30;;;;;;;;;;5082353;28;20914;-75
2021/06/18 07:50:22;;;;;;;4.80;4.30;;;;;;;;;;5081135;28;20231;-74
2021/06/18 07:52:49;;;;;;;13.40;3.92;;;;;;;;;;5081488;28;20443;-74
2021/06/18 07:55:23;;;;;;;7.40;4.60;;;;;;;;;;5080316;28;20181;-74
2021/06/18 07:57:49;;;;;;;5.97;4.53;;;;;;;;;;5082589;28;20218;-74
2021/06/18 08:00:16;;;;;;;7.73;4.07;;;;;;;;;;5083949;28;20245;-74
2021/06/18 08:02:43;;;;;;;4.77;4.10;;;;;;;;;;5081514;28;20455;-74
2021/06/18 08:05:12;;;;;;;5.78;3.90;;;;;;;;;;5081767;28;20444;-75
2021/06/18 08:07:42;;;;;;;7.38;4.30;;;;;;;;;;5078298;28;20195;-75
2021/06/18 08:10:10;;;;;;;5.93;3.55;;;;;;;;;;5082569;28;20211;-75
2021/06/18 08:12:36;;;;;;;6.00;4.03;;;;;;;;;;5081345;28;20275;-74
2021/06/18 08:15:02;;;;;;;6.78;4.22;;;;;;;;;;5083209;28;20415;-74
2021/06/18 08:17:28;;;;;;;4.15;3.75;;;;;;;;;;5079426;28;20269;-74
2021/06/18 08:19:54;;;;;;;8.03;4.03;;;;;;;;;;5083579;28;20181;-75
2021/06/18 08:22:20;;;;;;;7.77;4.30;;;;;;;;;;5093620;28;20475;-75
2021/06/18 08:24:46;;;;;;;4.82;4.32;;;;;;;;;;5081819;28;20918;-76
2021/06/18 08:27:12;;;;;;;5.10;3.93;;;;;;;;;;5081579;28;20536;-76
2021/06/18 08:29:38;;;;;;;7.20;4.13;;;;;;;;;;5079593;28;20504;-76
2021/06/18 08:32:05;;;;;;;3.63;3.23;;;;;;;;;;5078874;28;20439;-76
2021/06/18 08:34:31;;;;;;;5.93;3.90;;;;;;;;;;5080319;28;20521;-76
2021/06/18 08:36:57;;;;;;;6.70;3.80;;;;;;;;;;5080494;28;20431;-76
2021/06/18 08:39:23;;;;;;;6.07;4.20;;;;;;;;;;5082896;28;20180;-76
2021/06/18 08:41:50;;;;;;;6.77;3.83;;;;;;;;;;5079677;28;20516;-76
2021/06/18 08:44:20;;;;;;;5.83;4.00;;;;;;;;;;5079042;28;20427;-75
2021/06/18 08:46:46;;;;;;;4.83;3.90;;;;;;;;;;5078668;28;20458;-76
2021/06/18 08:49:12;;;;;;;3.73;3.43;;;;;;;;;;5080387;28;20956;-76
2021/06/18 08:51:38;;;;;;;5.67;4.10;;;;;;;;;;5082110;28;20418;-75
2021/06/18 08:54:04;;;;;;;6.87;3.67;;;;;;;;;;5081637;28;20399;-74
2021/06/18 08:56:31;;;;;;;7.40;3.70;;;;;;;;;;5077598;28;21022;-75
2021/06/18 08:58:57;;;;;;;5.77;3.33;;;;;;;;;;5080143;28;20431;-75
2021/06/18 09:01:23;;;;;;;4.23;3.87;;;;;;;;;;5078741;28;20413;-74
2021/06/18 09:03:50;;;;;;;4.80;3.80;;;;;;;;;;5080325;28;20406;-75
2021/06/18 09:06:25;;;;;;;7.23;5.00;;;;;;;;;;5093207;28;20426;-74
2021/06/18 09:09:09;;;;;;;4.30;3.80;;;;;;;;;;5081233;28;20443;-74
2021/06/18 09:11:50;;;;;;;5.93;4.50;;;;;;;;;;5078323;28;20958;-74
2021/06/18 09:14:20;;;;;;;3.60;3.30;;;;;;;;;;5078676;28;20405;-73
2021/06/18 09:17:05;;;;;;;4.87;3.63;;;;;;;;;;5078375;28;20457;-73
2021/06/18 09:19:31;;;;;;;7.40;3.87;;;;;;;;;;5081445;28;20430;-74
2021/06/18 09:21:58;;;;;;;5.63;3.50;;;;;;;;;;5079507;28;20570;-74
2021/06/18 09:24:28;;;;;;;4.43;3.97;;;;;;;;;;5081899;28;20408;-73
2021/06/18 09:26:54;;;;;;;8.87;3.87;;;;;;;;;;5081750;28;20421;-73
2021/06/18 09:29:21;;;;;;;4.43;3.67;;;;;;;;;;5079001;28;20458;-74
2021/06/18 09:31:54;;;;;;;8.47;3.20;;;;;;;;;;5078480;28;20453;-73
2021/06/18 09:37:14;;;;;;;3.77;3.37;;;;;;;;;;5075892;28;20409;-73
2021/06/18 09:39:59;;;;;;;3.57;3.27;;;;;;;;;;5079898;28;20457;-73
2021/06/18 09:42:25;;;;;;;8.60;2.80;;;;;;;;;;5086378;28;20442;-73
2021/06/18 09:45:01;;;;;;;5.03;3.60;;;;;;;;;;5079371;28;20442;-73
2021/06/18 09:47:28;;;;;;;4.00;3.13;;;;;;;;;;5078016;28;20471;-74
2021/06/18 09:49:54;;;;;;;3.27;2.97;;;;;;;;;;5078657;28;20427;-74
2021/06/18 09:52:22;;;;;;;4.20;3.00;;;;;;;;;;5081081;28;20813;-74
2021/06/18 09:54:55;;;;;;;2.87;2.67;;;;;;;;;;5079823;28;20474;-74
2021/06/18 09:57:23;;;;;;;4.70;2.80;;;;;;;;;;5082827;28;20392;-74
2021/06/18 09:59:52;;;;;;;2.50;2.30;;;;;;;;;;5078347;28;20417;-74
2021/06/18 10:02:20;;;;;;;6.50;2.60;;;;;;;;;;5082699;28;20434;-73
2021/06/18 10:04:48;;;;;;;3.50;3.20;;;;;;;;;;5081961;28;20503;-74
2021/06/18 10:07:15;;;;;;;5.03;3.10;;;;;;;;;;5083135;28;20497;-73
2021/06/18 10:09:41;;;;;;;2.83;2.63;;;;;;;;;;5083463;28;20954;-73
2021/06/18 10:12:07;;;;;;;2.93;2.63;;;;;;;;;;5084897;28;20438;-74
2021/06/18 10:14:34;;;;;;;7.87;2.60;;;;;;;;;;5083051;28;20437;-74
2021/06/18 10:17:01;;;;;;;5.80;3.50;;;;;;;;;;5082050;28;20412;-73
2021/06/18 10:19:30;;;;;;;2.27;2.00;;;;;;;;;;5081568;28;20404;-73
2021/06/18 10:22:10;;;;;;;4.20;2.87;;;;;;;;;;5076842;28;20529;-73
2021/06/18 10:24:55;;;;;;;3.77;3.33;;;;;;;;;;5080647;28;20413;-72
2021/06/18 10:27:27;;;;;;;5.70;2.83;;;;;;;;;;5091012;28;20651;-72
2021/06/18 10:29:53;;;;;;;4.10;2.57;;;;;;;;;;5082869;28;20420;-73
2021/06/18 10:32:28;;;;;;;3.13;2.53;;;;;;;;;;5083985;28;20543;-72
2021/06/18 10:34:55;;;;;;;3.90;2.43;;;;;;;;;;5081377;28;20437;-72
2021/06/18 10:37:23;;;;;;;5.17;2.57;;;;;;;;;;5082033;28;20409;-72
2021/06/18 10:39:53;;;;;;;3.30;2.37;;;;;;;;;;5082175;28;20439;-73
2021/06/18 10:42:19;;;;;;;3.13;2.00;;;;;;;;;;5098013;28;20412;-72
2021/06/18 10:44:45;;;;;;;3.30;2.50;;;;;;;;;;5081395;28;20435;-72
2021/06/18 10:47:24;;;;;;;3.30;2.30;;;;;;;;;;5080133;28;20454;-72
2021/06/18 10:49:51;;;;;;;4.03;2.30;;;;;;;;;;5081307;28;20450;-72
2021/06/18 10:52:22;;;;;;;4.03;3.63;;;;;;;;;;5080833;28;20446;-73
2021/06/18 10:54:50;;;;;;;2.97;2.73;;;;;;;;;;5082178;28;20810;-73
2021/06/18 10:57:25;;;;;;;2.60;2.03;;;;;;;;;;5085025;28;20421;-73
2021/06/18 10:59:56;;;;;;;2.07;1.90;;;;;;;;;;5082250;28;20460;-73
2021/06/18 11:04:56;;;;;;;2.80;2.33;;;;;;;;;;5083531;28;20439;-73
2021/06/18 11:07:21;;;;;;;5.10;2.30;;;;;;;;;;5080454;28;20451;-72
2021/06/18 11:09:49;;;;;;;4.33;2.00;;;;;;;;;;5082626;28;20504;-72
2021/06/18 11:12:24;;;;;;;2.53;2.03;;;;;;;;;;5084548;28;20390;-73
2021/06/18 11:14:50;;;;;;;4.27;2.80;;;;;;;;;;5085689;28;20420;-73
2021/06/18 11:17:35;;;;;;;2.60;1.93;;;;;;;;;;5081726;28;20468;-73
2021/06/18 11:20:01;;;;;;;5.80;2.10;;;;;;;;;;5081717;28;20436;-72
2021/06/18 11:22:34;;;;;;;2.60;2.00;;;;;;;;;;5081230;28;20409;-72
2021/06/18 11:25:00;;;;;;;5.73;2.60;;;;;;;;;;5091663;28;20791;-73
2021/06/18 11:27:28;;;;;;;5.63;2.53;;;;;;;;;;5084401;28;20399;-72
2021/06/18 11:30:13;;;;;;;6.40;2.33;;;;;;;;;;5082458;28;20423;-73
2021/06/18 11:32:43;;;;;;;6.23;2.90;;;;;;;;;;5073869;28;20436;-74
2021/06/18 11:35:27;;;;;;;1.90;1.70;;;;;;;;;;5074877;28;20437;-73
2021/06/18 11:37:54;;;;;;;5.80;2.10;;;;;;;;;;5081187;28;20432;-73
2021/06/18 11:40:24;;;;;;;4.07;2.30;;;;;;;;;;5081168;28;20449;-74
2021/06/18 11:42:50;;;;;;;3.07;1.90;;;;;;;;;;5082446;28;20458;-73
2021/06/18 11:45:17;;;;;;;6.03;2.10;;;;;;;;;;5084684;28;20419;-73
2021/06/18 11:47:43;;;;;;;2.20;1.80;;;;;;;;;;5079503;28;20829;-74
2021/06/18 11:50:09;;;;;;;3.37;1.60;;;;;;;;;;5079677;28;20437;-74
2021/06/18 11:52:35;;;;;;;2.97;1.60;;;;;;;;;;5081461;28;20439;-73
2021/06/18 11:55:01;;;;;;;4.83;2.00;;;;;;;;;;5080670;28;20446;-74
2021/06/18 11:57:27;;;;;;;2.67;1.50;;;;;;;;;;5084762;28;20436;-72
2021/06/18 11:59:58;;;;;;;2.17;1.90;;;;;;;;;;5082195;28;20417;-72
2021/06/18 12:02:27;;;;;;;2.00;1.80;;;;;;;;;;5079197;28;20528;-72
2021/06/18 12:05:07;;;;;;;1.70;1.60;;;;;;;;;;5080491;28;20463;-73
2021/06/18 12:07:34;;;;;;;4.40;1.90;;;;;;;;;;5081133;28;20786;-74
2021/06/18 12:10:01;;;;;;;7.57;1.80;;;;;;;;;;5079512;28;20480;-73
2021/06/18 12:12:28;;;;;;;1.73;1.63;;;;;;;;;;5082991;28;20933;-74
2021/06/18 12:14:58;;;;;;;1.63;1.50;;;;;;;;;;5078947;28;20414;-73
2021/06/18 12:17:25;;;;;;;3.93;1.83;;;;;;;;;;5075956;28;20455;-73
2021/06/18 12:19:53;;;;;;;2.00;1.37;;;;;;;;;;5079136;28;20483;-74
2021/06/18 12:22:19;;;;;;;3.57;1.63;;;;;;;;;;5078716;28;20442;-73
2021/06/18 12:24:55;;;;;;;1.60;1.50;;;;;;;;;;5074607;28;20426;-73
2021/06/18 12:27:23;;;;;;;4.43;1.67;;;;;;;;;;5079841;28;20468;-73
2021/06/18 12:29:54;;;;;;;1.63;1.53;;;;;;;;;;5074126;28;20466;-72
2021/06/18 12:32:21;;;;;;;3.83;1.53;;;;;;;;;;5077041;28;20491;-72
2021/06/18 12:34:50;;;;;;;3.53;1.97;;;;;;;;;;5075986;28;20441;-72
2021/06/18 12:37:20;;;;;;;3.00;1.60;;;;;;;;;;5078101;28;20438;-73
2021/06/18 12:39:47;;;;;;;2.13;1.63;;;;;;;;;;5075320;28;20934;-72
2021/06/18 12:42:17;;;;;;;2.03;1.50;;;;;;;;;;5083830;28;20433;-73
2021/06/18 12:44:43;;;;;;;4.80;2.43;;;;;;;;;;5077654;28;20456;-72
2021/06/18 12:47:11;;;;;;;1.83;1.73;;;;;;;;;;5076897;28;20461;-74
2021/06/18 12:49:37;;;;;;;1.30;1.20;;;;;;;;;;5077702;28;20478;-73
2021/06/18 12:52:13;;;;;;;2.73;2.17;;;;;;;;;;5081971;28;20459;-73
2021/06/18 12:54:40;;;;;;;1.67;1.57;;;;;;;;;;5093724;28;20800;-73
2021/06/18 12:57:06;;;;;;;2.07;1.80;;;;;;;;;;5080448;28;20418;-72
2021/06/18 12:59:36;;;;;;;1.80;1.70;;;;;;;;;;5079381;28;20443;-72
2021/06/18 13:02:02;;;;;;;2.10;1.80;;;;;;;;;;5083278;28;20431;-72
2021/06/18 13:04:32;;;;;;;3.03;1.80;;;;;;;;;;5077388;28;20514;-72
2021/06/18 13:06:58;;;;;;;1.47;1.37;;;;;;;;;;5074857;28;20430;-74
2021/06/18 13:09:35;;;;;;;3.10;1.77;;;;;;;;;;5076372;28;20466;-73
2021/06/18 13:12:01;;;;;;;1.77;1.37;;;;;;;;;;5081252;28;20480;-73
2021/06/18 13:14:28;;;;;;;2.03;1.93;;;;;;;;;;5074943;28;20437;-73
2021/06/18 13:16:57;;;;;;;1.80;1.53;;;;;;;;;;5076939;28;20427;-74
2021/06/18 13:19:43;;;;;;;1.90;1.67;;;;;;;;;;5077275;28;20911;-73
2021/06/18 13:22:12;;;;;;;1.50;1.40;;;;;;;;;;5091122;28;20450;-73
2021/06/18 13:24:49;;;;;;;2.30;1.40;;;;;;;;;;5075751;28;20462;-73
2021/06/18 13:27:15;;;;;;;3.40;1.47;;;;;;;;;;5079044;28;20415;-73
2021/06/18 13:30:04;;;;;;;2.93;1.53;;;;;;;;;;5078193;28;20526;-73
2021/06/18 13:32:43;;;;;;;1.70;1.50;;;;;;;;;;5078070;28;20446;-73
2021/06/18 13:35:13;;;;;;;1.93;1.27;;;;;;;;;;5077011;28;20437;-73
2021/06/18 13:37:39;;;;;;;1.83;1.60;;;;;;;;;;5078866;28;20444;-73
2021/06/18 13:40:19;;;;;;;1.60;1.50;;;;;;;;;;5081277;28;20446;-73
2021/06/18 13:42:45;;;;;;;1.70;1.60;;;;;;;;;;5082630;28;20716;-74
2021/06/18 13:45:11;;;;;;;1.90;1.40;;;;;;;;;;5099375;28;20720;-73
2021/06/18 13:47:37;;;;;;;1.40;1.30;;;;;;;;;;5079579;28;20470;-74
2021/06/18 13:50:05;;;;;;;1.90;1.40;;;;;;;;;;5080353;28;20787;-74
2021/06/18 13:52:31;;;;;;;1.20;1.10;;;;;;;;;;5080951;28;20431;-74
2021/06/18 13:54:57;;;;;;;1.10;1.00;;;;;;;;;;5082065;28;20435;-73
2021/06/18 13:57:23;;;;;;;1.97;1.20;;;;;;;;;;5083911;28;20423;-74
2021/06/18 13:59:49;;;;;;;2.50;1.50;;;;;;;;;;5082085;28;20533;-73
2021/06/18 14:02:16;;;;;;;1.40;1.30;;;;;;;;;;5081490;28;20439;-73
2021/06/18 14:04:46;;;;;;;2.10;1.20;;;;;;;;;;5081635;28;20445;-73
2021/06/18 14:07:12;;;;;;;1.60;1.50;;;;;;;;;;5080358;28;20462;-73
2021/06/18 14:09:39;;;;;;;1.33;1.23;;;;;;;;;;5080863;28;20447;-76
2021/06/18 14:12:06;;;;;;;1.40;1.03;;;;;;;;;;5080013;28;20880;-74
2021/06/18 14:14:39;;;;;;;3.93;1.30;;;;;;;;;;5081089;28;20433;-75
2021/06/18 14:17:05;;;;;;;1.83;1.20;;;;;;;;;;5078041;28;20488;-75
2021/06/18 14:19:31;;;;;;;1.47;1.37;;;;;;;;;;5081470;28;20790;-74
2021/06/18 14:21:57;;;;;;;1.63;1.53;;;;;;;;;;5077498;28;20426;-74
2021/06/18 14:24:23;;;;;;;1.53;1.43;;;;;;;;;;5080988;28;20425;-74
2021/06/18 14:26:49;;;;;;;1.50;1.40;;;;;;;;;;5080888;28;20428;-75
2021/06/18 14:29:15;;;;;;;1.40;1.30;;;;;;;;;;5078156;28;20439;-75
2021/06/18 14:31:41;;;;;;;1.73;1.43;;;;;;;;;;5080763;28;20415;-73
2021/06/18 14:34:07;;;;;;;1.80;1.60;;;;;;;;;;5094233;28;20483;-75
2021/06/18 14:36:33;;;;;;;3.00;2.20;;;;;;;;;;5078325;28;20404;-75
2021/06/18 14:38:59;;;;;;;1.93;1.20;;;;;;;;;;5082928;28;20489;-76
2021/06/18 14:41:25;;;;;;;2.00;1.40;;;;;;;;;;5081234;28;20437;-75
2021/06/18 14:43:51;;;;;;;3.00;1.70;;;;;;;;;;5079168;28;20516;-80
2021/06/18 14:46:17;;;;;;;1.73;1.60;;;;;;;;;;5095251;28;20428;-76
2021/06/18 14:48:43;;;;;;;3.37;2.43;;;;;;;;;;5075847;28;20513;-82